Henderson, Nevada Weather observations

Data are for observation ending at time listed.
 Day   Time    Ave.   Ave.  Ave.  Vector   Max.   Stn.    Total    Solar   Ave.  
  of    of     Air    Rel.  Wind   Wind    Wind   Baro.  Precip.   Rad.    Soil  
Year   Day     Temp.  Hum.  Speed  Dir.    Gust   Pres.                    Temp. 
2016   (PST)    F      %     mph   deg.    mph     mb.     in.     W/m2     F   
------------------------------------------------------------------------------
 336   12:10   52.1    26    2.3   340      5.9   938.0    0.00     588    41.4
 336   12:20   52.3    26    2.6   338      5.7   937.8    0.00     595    41.6
 336   12:30   52.9    25    1.3    66      3.9   937.7    0.00     578    41.7
 336   12:40   53.0    24    2.3   334      8.3   937.5    0.00     629    41.9
 336   12:50   53.5    24    3.4   329      7.5   937.3    0.00     608    42.0
 336   13:00   53.5    24    2.1   348      5.8   937.1    0.00     523    42.1
 336   13:10   53.7    24    2.3    35      6.4   937.0    0.00     558    42.2
 336   13:20   54.6    24    2.4   357      7.9   936.9    0.00     469    42.4
 336   13:30   54.3    25    3.1   346      8.0   936.7    0.00     403    42.5
 336   13:40   54.3    25    3.0   343      6.9   936.7    0.00     523    42.7
 336   13:50   54.7    25    2.5   350      6.6   936.6    0.00     490    42.8
 336   14:00   54.7    24    2.1   331      5.7   936.5    0.00     455    42.9
 336   14:10   54.6    24    2.2   340      6.5   936.4    0.00     389    43.1
 336   14:20   54.6    25    2.6   307      5.3   936.3    0.00     392    43.2
 336   14:30   54.2    25    3.5   307      6.9   936.2    0.00     319    43.4
 336   14:40   54.2    25    2.3   303      5.5   936.2    0.00     256    43.5
 336   14:50   54.2    25    1.6   357      5.0   936.0    0.00     231    43.6
 336   15:00   54.2    25    1.4   312      4.3   935.9    0.00     260    43.7
 336   15:10   54.3    25    2.5   307      5.0   935.9    0.00     215    43.8
 336   15:20   54.3    25    2.8   309      5.3   935.8    0.00     189    43.8
 336   15:30   54.3    25    2.3   316      5.2   935.9    0.00     198    44.0
 336   15:40   54.2    25    1.9   315      4.5   935.9    0.00     152    44.0
 336   15:50   54.0    26    1.7   294      4.1   935.8    0.00     106    44.1
 336   16:00   53.9    26    1.6   310      3.0   935.8    0.00      41    44.1
 336   16:10   53.4    27    1.8   294      3.6   935.8    0.00      27    44.1
 336   16:20   52.7    28    0.6   302      2.2   935.6    0.00      17    44.2
 336   16:30   52.1    28    1.4   281      2.0   935.7    0.00       7    44.2
 336   16:40   51.5    29    1.2   271      1.8   935.7    0.00       4    44.2
 336   16:50   50.5    30    0.0   270      0.8   935.7    0.00       0    44.3
 336   17:00   49.4    31    0.4   247      2.4   935.7    0.00       0    44.3
 336   17:10   48.4    32    1.5   243      2.6   935.7    0.00       0    44.3
 336   17:20   49.0    31    1.5   253      2.5   935.7    0.00       0    44.3
 336   17:30   50.0    30    2.0   260      2.7   935.8    0.00       0    44.3
 336   17:40   49.4    30    1.4   239      2.6   935.9    0.00       0    44.2
 336   17:50   48.7    32    1.6   245      2.5   935.9    0.00       0    44.2
 336   18:00   49.0    31    1.7   252      2.5   935.9    0.00       0    44.1
 336   18:10   48.7    31    2.0   256      3.0   935.9    0.00       0    44.1
 336   18:20   48.8    31    2.1   257      2.9   936.0    0.00       0    44.0
 336   18:30   48.8    32    1.6   232      2.3   936.0    0.00       0    43.9
 336   18:40   47.9    33    0.4   212      1.6   936.1    0.00       0    43.9
 336   18:50   47.0    34    0.1    96      0.9   936.1    0.00       0    43.8
 336   19:00   46.1    36    0.0     0      0.0   936.2    0.00       0    43.7
 336   19:10   45.9    37    0.4   182      1.7   936.2    0.00       0    43.8
 336   19:20   46.5    36    0.0     0      0.0   936.2    0.00       0    43.7
 336   19:30   46.8    36    0.6   123      2.2   936.2    0.00       0    43.6
 336   19:40   47.3    35    0.0   213      0.9   936.2    0.00       0    43.6
 336   19:50   47.4    35    0.1   119      1.2   936.3    0.00       0    43.6
 336   20:00   47.8    34    0.8   120      2.2   936.3    0.00       0    43.5
 336   20:10   48.4    33    0.3   114      1.8   936.3    0.00       0    43.5
 336   20:20   48.4    32    0.9   116      2.2   936.4    0.00       0    43.5
 336   20:30   48.0    34    0.0   234      0.6   936.5    0.00       0    43.5
 336   20:40   47.2    36    0.0     0      0.0   936.6    0.00       0    43.5
 336   20:50   46.8    36    0.0    59      0.4   936.7    0.00       0    43.5
 336   21:00   47.1    34    0.5   288      2.3   936.7    0.00       0    43.5
 336   21:10   47.6    34    2.3   275      3.4   936.8    0.00       0    43.5
 336   21:20   47.3    36    2.9   268      4.7   936.8    0.00       0    43.5
 336   21:30   48.5    33    3.7   309      8.5   936.9    0.00       0    43.5
 336   21:40   49.4    32    3.4   316      6.3   937.0    0.00       0    43.5
 336   21:50   49.2    32    3.8   320      8.4   937.1    0.00       0    43.5
 336   22:00   49.7    30    3.9   326      8.5   937.2    0.00       0    43.4
 336   22:10   49.7    30    3.2   324      6.6   937.3    0.00       0    43.5
 336   22:20   49.3    31    3.1   296      5.6   937.3    0.00       0    43.4
 336   22:30   49.2    30    4.2   297      8.6   937.4    0.00       0    43.5
 336   22:40   49.6    30    4.8   302      8.6   937.5    0.00       0    43.5
 336   22:50   49.6    30    4.5   302      7.6   937.6    0.00       0    43.5
 336   23:00   49.7    30    4.3   309      8.3   937.6    0.00       0    43.6
 336   23:10   49.7    29    3.7   312     10.1   937.7    0.00       0    43.6
 336   23:20   49.8    28    4.0   320      8.9   937.7    0.00       0    43.6
 336   23:30   49.9    28    5.0   320     10.8   937.6    0.00       0    43.7
 336   23:40   49.6    29    3.0   340      9.1   937.7    0.00       0    43.7
 336   23:50   49.5    29    3.9   347      9.1   937.7    0.00       0    43.8
 337    0:00   49.4    29    3.2   357      6.9   937.7    0.00       0    43.8
 337    0:10   49.2    30    2.2     7      6.6   937.6    0.00       0    43.9
 337    0:20   48.9    30    2.5    20      8.4   937.6    0.00       0    43.9
 337    0:30   48.7    30    2.3    22      6.5   937.5    0.00       0    44.0
 337    0:40   48.6    31    2.1    13      5.8   937.6    0.00       0    44.0
 337    0:50   48.4    31    1.5     4      4.1   937.6    0.00       0    44.0
 337    1:00   48.3    32    1.3     4      5.1   937.6    0.00       0    44.0
 337    1:10   48.5    32    2.5     8     10.4   937.6    0.00       0    44.1
 337    1:20   48.7    31    2.9     6      8.9   937.6    0.00       0    44.1
 337    1:30   48.7    31    5.0   348     13.2   937.6    0.00       0    44.1
 337    1:40   48.8    32    4.9   339     10.0   937.6    0.00       0    44.2
 337    1:50   48.7    32    5.3   340     11.3   937.6    0.00       0    44.2
 337    2:00   48.5    32    5.8   329     12.3   937.6    0.00       0    44.2
 337    2:10   48.0    32    4.3   327      9.5   937.6    0.00       0    44.2
 337    2:20   47.6    32    4.0   330     10.8   937.5    0.00       0    44.2
 337    2:30   47.2    30    4.5   325      9.4   937.5    0.00       0    44.2
 337    2:40   46.7    30    4.4   317      8.6   937.5    0.00       0    44.3
 337    2:50   46.4    30    3.1   331      9.7   937.5    0.00       0    44.3
 337    3:00   46.8    32    5.0   338     11.0   937.5    0.00       0    44.2
 337    3:10   47.3    32    5.5   340     12.9   937.5    0.00       0    44.3
 337    3:20   47.1    32    5.4   337     10.8   937.5    0.00       0    44.3
 337    3:30   46.6    33    3.8   330      9.2   937.5    0.00       0    44.2
 337    3:40   46.5    33    4.5   332     12.1   937.5    0.00       0    44.3
 337    3:50   46.2    33    3.7   335      9.1   937.5    0.00       0    44.2
 337    4:00   45.5    33    4.5   325      9.3   937.6    0.00       0    44.2
 337    4:10   44.6    33    4.2   312      6.8   937.7    0.00       0    44.2
 337    4:20   43.9    33    3.8   312      6.4   937.6    0.00       0    44.1
 337    4:30   43.4    33    3.7   305      6.4   937.7    0.00       0    44.1
 337    4:40   43.2    33    2.7   313      5.9   937.8    0.00       0    44.1
 337    4:50   42.8    34    2.8   314      4.5   937.9    0.00       0    44.0
 337    5:00   42.7    34    2.9   315      5.2   938.1    0.00       0    44.0
 337    5:10   42.5    34    2.9   308      6.4   938.2    0.00       0    43.9
 337    5:20   42.6    34    3.4   305      5.8   938.4    0.00       0    43.9
 337    5:30   42.8    33    4.1   305      6.9   938.6    0.00       0    43.8
 337    5:40   42.9    33    4.3   307      6.7   938.8    0.00       0    43.7
 337    5:50   42.9    33    3.8   308      7.2   938.9    0.00       0    43.7
 337    6:00   42.5    33    2.5   328      5.8   939.0    0.00       0    43.6
 337    6:10   42.0    35    1.2   333      3.1   939.1    0.00       0    43.6
 337    6:20   41.3    36    1.0   326      2.2   939.3    0.00       0    43.5
 337    6:30   40.9    36    2.1   302      3.9   939.4    0.00       0    43.5
 337    6:40   40.7    37    2.7   301      5.4   939.5    0.00       4    43.4
 337    6:50   40.8    37    2.9   302      4.3   939.7    0.00       7    43.3
 337    7:00   40.7    38    2.9   301      5.4   939.8    0.00      17    43.3
 337    7:10   41.8    36    3.6   301      7.4   939.9    0.00      31    43.2
 337    7:20   42.4    35    4.0   304      7.8   940.1    0.00      65    43.1
 337    7:30   43.7    33    4.4   304      7.8   940.2    0.00     129    43.0
 337    7:40   44.4    33    4.5   303      9.0   940.4    0.00     172    43.0
 337    7:50   45.1    32    5.2   305      9.9   940.5    0.00     212    42.9
 337    8:00   45.9    30    5.2   312      9.8   940.7    0.00     252    42.8
 337    8:10   46.7    30    5.9   311     11.5   940.8    0.00     307    42.8
 337    8:20   47.2    29    6.7   300     12.0   940.9    0.00     403    42.8
 337    8:30   48.1    28    7.1   314     14.2   941.1    0.00     477    42.8
 337    8:40   48.3    27    7.8   314     14.3   941.3    0.00     518    42.8
 337    8:50   48.5    26    8.5   307     15.1   941.4    0.00     551    42.8
 337    9:00   48.6    26    8.1   311     14.1   941.5    0.00     571    42.9
 337    9:10   48.7    26    8.4   318     14.2   941.6    0.00     588    43.0
 337    9:20   49.1    25    7.9   320     15.1   941.7    0.00     544    43.0
 337    9:30   48.8    26    8.7   309     16.1   941.8    0.00     540    43.2
 337    9:40   49.3    25    7.2   318     14.6   941.8    0.00     543    43.3
 337    9:50   49.2    25    7.3   312     13.7   941.8    0.00     550    43.5
 337   10:00   49.6    24    7.3   321     14.5   941.9    0.00     568    43.6
 337   10:10   50.3    24    7.3   317     13.0   941.8    0.00     585    43.7
 337   10:20   50.5    23    7.6   327     15.1   941.8    0.00     594    43.9
 337   10:30   50.6    23    7.1   323     16.2   941.8    0.00     605    44.0
 337   10:40   50.9    23    7.1   324     16.6   941.7    0.00     614    44.1
 337   10:50   50.5    23    7.3   347     15.9   941.6    0.00     632    44.3
 337   11:00   50.9    23    6.7   349     14.3   941.4    0.00     633    44.4
 337   11:10   51.1    23    6.8   340     14.3   941.2    0.00     636    44.5
 337   11:20   50.9    23    8.4   339     16.4   941.1    0.00     644    44.6
 337   11:30   51.1    22    7.9   331     17.7   941.0    0.00     651    44.7
 337   11:40   51.4    22    7.6   342     17.3   941.0    0.00     655    44.8
 337   11:50   51.4    23    7.9   339     15.8   940.9    0.00     650    44.9
 337   12:00   51.3    22    8.4   335     18.9   940.8    0.00     645    44.9

Return to Henderson, Nevada graphs page.


Western Regional Climate Center,wrcc@dri.edu